Flight Track Log - Related Links

Times and Time Zones

All times are in EDT time to prevent confusion due to time zone crossing. See the N779NC flight status page for this flight to view local times or setup timezone preferences in your user account.

Time Position Orientation Groundspeed Altitude Reporting Facility
EDT Latitude Longitude Course Direction KTS MPH feet Rate Location/Type
Sun 11:12:15 AM 33.6333 -84.3833 228° Southwest 164 189 2,400  Level Atlanta TRACON
Sun 11:13:15 AM 33.6167 -84.3167 107° East 247 284 4,200 2,050 Climbing Atlanta TRACON
Sun 11:14:15 AM 33.5500 -84.2833 157° South 275 316 6,500 2,092 Climbing Atlanta TRACON
Sun 11:15:00 AM 33.2155 -84.4167 180° South  Level FlightAware Approximate
Sun 11:16:00 AM 33.1110 -84.4167 180° South  Level FlightAware Approximate
Sun 11:16:30 AM 33.3972 -84.3350 196° South 269 310 11,000  Level Atlanta Center
Sun 11:17:00 AM 33.0155 -84.4405 228° Southwest  Level FlightAware Approximate
Sun 11:17:30 AM 33.3136 -84.3644 196° South 296 341 12,200  Level Atlanta Center
Sun 11:18:30 AM 33.2239 -84.3939 195° South 328 377 14,600 2,200 Climbing Atlanta Center
Sun 11:19:30 AM 33.1300 -84.4258 196° South 345 397 16,600 1,700 Climbing Atlanta Center
Sun 11:20:30 AM 33.0275 -84.4600 196° South 345 397 18,000 1,550 Climbing Atlanta Center
Sun 11:21:30 AM 32.9250 -84.4917 195° South 362 417 19,700 1,450 Climbing Atlanta Center
Sun 11:22:30 AM 32.8247 -84.5333 199° South 374 430 20,900 1,250 Climbing Atlanta Center
Sun 11:23:30 AM 32.7450 -84.6044 217° Southwest 380 437 22,200 1,350 Climbing Atlanta Center
Sun 11:24:30 AM 32.6569 -84.6828 217° Southwest 399 459 23,600 1,250 Climbing Atlanta Center
Sun 11:25:30 AM 32.5689 -84.7683 219° Southwest 410 472 24,700 1,150 Climbing Atlanta Center
Sun 11:26:30 AM 32.4661 -84.8489 213° Southwest 415 478 25,900 1,100 Climbing Atlanta Center
Sun 11:27:30 AM 32.3656 -84.9242 212° Southwest 415 478 26,900 976 Climbing Atlanta Center
Sun 11:28:33 AM 32.2686 -85.0142 218° Southwest 425 489 27,900 537 Climbing Atlanta Center
Sun 11:29:33 AM 32.1803 -85.1161 224° Southwest 434 499 28,000 50 Climbing Atlanta Center
Sun 11:30:33 AM 32.0897 -85.2106 221° Southwest 440 506 28,000 -444 Level Atlanta Center
Sun 11:32:15 AM 31.9375 -85.3797 223° Southwest 454 522 26,800 -852 Descending Jacksonville Center
Sun 11:33:15 AM 31.8481 -85.4753 222° Southwest 454 522 25,700 -1,100 Descending Jacksonville Center
Sun 11:34:15 AM 31.7583 -85.5706 222° Southwest 443 510 24,600 -850 Descending Jacksonville Center
Sun 11:35:15 AM 31.6767 -85.6756 228° Southwest 443 510 24,000 -750 Descending Jacksonville Center
Sun 11:36:15 AM 31.5950 -85.7803 228° Southwest 438 504 23,100 -950 Descending Jacksonville Center
Sun 11:37:15 AM 31.5053 -85.8725 221° Southwest 433 498 22,100 -1,050 Descending Jacksonville Center
Sun 11:38:15 AM 31.4214 -85.9672 224° Southwest 428 493 21,000 -1,150 Descending Jacksonville Center
Sun 11:39:15 AM 31.3481 -86.0669 229° Southwest 420 483 19,800 -1,700 Descending Jacksonville Center
Sun 11:40:15 AM 31.2808 -86.1619 230° Southwest 398 458 17,600 -2,350 Descending Jacksonville Center
Sun 11:41:15 AM 31.2097 -86.2494 226° Southwest 385 443 15,100 -2,750 Descending Jacksonville Center
Sun 11:42:15 AM 31.1408 -86.3294 225° Southwest 368 423 12,100 -2,000 Descending Jacksonville Center
Sun 11:43:15 AM 31.0781 -86.4097 228° Southwest 352 405 11,100 -550 Descending Jacksonville Center
Sun 11:44:15 AM 31.0222 -86.4658 221° Southwest 312 359 11,000  Descending Jacksonville Center
Sun 11:45:15 AM 30.9664 -86.5217 221° Southwest 280 322 11,100 -1,100 Climbing Jacksonville Center
Sun 11:46:15 AM 30.9067 -86.5631 211° Southwest 261 300 8,800 -2,650 Descending Jacksonville Center
Sun 11:47:15 AM 30.8322 -86.5408 166° South 240 276 5,800 -2,600 Descending Jacksonville Center
Sun 11:48:15 AM 30.7683 -86.5142 160° South 250 288 3,600 -1,500 Descending Jacksonville Center
Sun 11:49:15 AM 30.7086 -86.4878 159° South 239 275 2,800 -800 Descending Jacksonville Center
Sun 11:51:00 AM 30.5378 -86.5168 161° South  Level Estimated
Sun 11:58:00 AM 30.4832 -86.5260 161° South  Level Estimated
Sun 11:59:00 AM 30.4832 -86.5260 161° South  Level Estimated
Sun 12:00:00 PM 30.4832 -86.5260 161° South  Level Estimated
Sun 12:01:00 PM 30.4832 -86.5260 161° South  Level Estimated
Sun 12:02:00 PM 30.4832 -86.5260 161° South  Level Estimated

Login

Don't have an account? Register now (free) for customized features, flight alerts, and more!